Terminal Aerodrome Forecast
Issued by NWS Charleston, SC

Home | Current Version | Previous Version | Text Only | Print | Product List | Glossary On
Versions: 1 2 3 4 5 6 7 8 9 10 11 12 13 14 15 16 17 18
708
FTUS42 KCHS 212106 AAB
TAFCHS
TAF AMD
KCHS 212106Z 2121/2218 18011KT P6SM VCSH SCT006 BKN010
      TEMPO 2121/2123 VRB20G35KT 3SM TSRA BR SCT008 OVC012CB
     FM212300 21009KT P6SM -SHRA SCT006 OVC012
     FM220100 21009KT P6SM SCT006 OVC010 WS020/24035KT
     FM220900 22008KT P6SM VCSH SCT006 OVC010 WS020/23035KT=

USA.gov is the U.S. government's official web portal to all federal, state and local government web resources and services.